Flight Track Log - Related Links

Times and Time Zones

All times are in EDT time to prevent confusion due to time zone crossing. See the FLG3642 flight status page for this flight to view local times or setup timezone preferences in your user account.

Time Position Orientation Groundspeed Altitude Reporting Facility
EDT Latitude Longitude Course Direction KTS MPH feet Rate Location/Type
Wed 06:11:26 AM 42.8894 -85.4567 60° Northeast 163 188 2,800  Level Chicago Center
Wed 06:12:27 AM 42.9103 -85.3836 69° East 199 229 4,600 2,132 Climbing Chicago Center
Wed 06:13:27 AM 42.9356 -85.2928 69° East 244 281 7,100 2,650 Climbing Chicago Center
Wed 06:14:00 AM 42.8631 -85.2561 62° Northeast  Level FlightAware Approximate
Wed 06:14:27 AM 42.9386 -85.1881 88° East 273 314 9,900  Level Chicago Center
Wed 06:15:00 AM 42.8949 -85.1735 62° Northeast  Level FlightAware Approximate
Wed 06:15:28 AM 42.9322 -85.0731 94° East 300 345 11,500  Level Chicago Center
Wed 06:16:00 AM 42.9330 -85.0787 60° Northeast  Level FlightAware Approximate
Wed 06:16:28 AM 42.9228 -84.9422 96° East 341 392 13,500  Level Chicago Center
Wed 06:17:29 AM 42.9147 -84.8083 95° East 354 407 14,000 744 Climbing Chicago Center
Wed 06:18:29 AM 42.9050 -84.6711 95° East 361 415 15,000 500 Climbing Chicago Center
Wed 06:19:29 AM 42.8964 -84.5289 95° East 374 430 15,000  Level Chicago Center
Wed 06:20:30 AM 42.8858 -84.3844 96° East 384 442 15,000 -60 Level Chicago Center
Wed 06:21:09 AM 42.8761 -84.2808 97° East 372 428 14,900 -779 Descending Cleveland Center
Wed 06:21:47 AM 42.8708 -84.1869 94° East 370 426 14,000 -1,263 Descending Cleveland Center
Wed 06:22:06 AM 42.8658 -84.1442 99° East 369 425 13,700 -1,063 Descending Cleveland Center
Wed 06:23:06 AM 42.8575 -84.0047 95° East 365 420 12,600 -843 Descending Cleveland Center
Wed 06:24:07 AM 42.8469 -83.8711 96° East 362 417 12,000 -246 Descending Cleveland Center
Wed 06:25:08 AM 42.8233 -83.7453 104° East 347 399 12,100  Climbing Cleveland Center
Wed 06:26:08 AM 42.7417 -83.6789 149° Southeast 339 390 12,000 -50 Descending Cleveland Center
Wed 06:27:09 AM 42.6494 -83.6236 156° South 327 376 12,000  Level Cleveland Center
Wed 06:28:09 AM 42.5550 -83.5683 157° South 348 400 12,000 -400 Level Cleveland Center
Wed 06:29:09 AM 42.4644 -83.5161 157° South 359 413 11,200 -850 Descending Cleveland Center
Wed 06:30:09 AM 42.3878 -83.4956 169° South 337 388 10,300 -1,475 Descending Cleveland Center
Wed 06:31:11 AM 42.3044 -83.4919 178° South 273 314 8,200 -1,951 Descending Cleveland Center
Wed 06:32:12 AM 42.2328 -83.5306 202° Southwest 271 312 6,300 -1,672 Descending Cleveland Center
Wed 06:33:13 AM 42.1631 -83.5667 201° Southwest 256 295 4,800 -1,240 Descending Cleveland Center
Wed 06:34:13 AM 42.1106 -83.5753 187° South 192 221 3,800 -843 Descending Cleveland Center
Wed 06:35:14 AM 42.1061 -83.5053 95° East 181 208 3,100 -645 Descending Cleveland Center
Wed 06:36:14 AM 42.1203 -83.4469 72° East 161 185 2,500 -600 Descending Cleveland Center

Login

Don't have an account? Register now (free) for customized features, flight alerts, and more!